sensor_id;sensor_type;location;lat;lon;timestamp;P1;durP1;ratioP1;P2;durP2;ratioP2
56037;SDS011;41907;47.848;9.000;2023-10-08T00:01:48;13.68;;;8.25;;
56037;SDS011;41907;47.848;9.000;2023-10-08T00:04:15;11.88;;;7.90;;
56037;SDS011;41907;47.848;9.000;2023-10-08T00:06:43;12.80;;;7.60;;
56037;SDS011;41907;47.848;9.000;2023-10-08T00:09:10;10.27;;;6.90;;
56037;SDS011;41907;47.848;9.000;2023-10-08T00:11:36;11.00;;;7.10;;
56037;SDS011;41907;47.848;9.000;2023-10-08T00:14:03;11.45;;;7.13;;
56037;SDS011;41907;47.848;9.000;2023-10-08T00:16:33;8.77;;;7.18;;
56037;SDS011;41907;47.848;9.000;2023-10-08T00:18:59;12.05;;;7.40;;
56037;SDS011;41907;47.848;9.000;2023-10-08T00:21:27;10.90;;;7.63;;
56037;SDS011;41907;47.848;9.000;2023-10-08T00:23:52;15.18;;;8.00;;
56037;SDS011;41907;47.848;9.000;2023-10-08T00:26:20;12.27;;;7.95;;
56037;SDS011;41907;47.848;9.000;2023-10-08T00:28:58;14.05;;;9.00;;
56037;SDS011;41907;47.848;9.000;2023-10-08T00:31:25;13.52;;;7.53;;
56037;SDS011;41907;47.848;9.000;2023-10-08T00:33:56;12.05;;;8.57;;
56037;SDS011;41907;47.848;9.000;2023-10-08T00:36:22;9.60;;;6.97;;
56037;SDS011;41907;47.848;9.000;2023-10-08T00:38:49;12.88;;;8.55;;
56037;SDS011;41907;47.848;9.000;2023-10-08T00:41:23;11.55;;;7.22;;
56037;SDS011;41907;47.848;9.000;2023-10-08T00:43:49;11.88;;;8.07;;
56037;SDS011;41907;47.848;9.000;2023-10-08T00:46:16;10.10;;;7.65;;
56037;SDS011;41907;47.848;9.000;2023-10-08T00:51:21;13.20;;;8.63;;
56037;SDS011;41907;47.848;9.000;2023-10-08T00:53:52;13.80;;;7.47;;
56037;SDS011;41907;47.848;9.000;2023-10-08T00:56:27;11.25;;;7.60;;
56037;SDS011;41907;47.848;9.000;2023-10-08T00:59:32;11.55;;;8.13;;
56037;SDS011;41907;47.848;9.000;2023-10-08T01:02:02;12.85;;;8.32;;
56037;SDS011;41907;47.848;9.000;2023-10-08T01:04:34;13.50;;;8.90;;
56037;SDS011;41907;47.848;9.000;2023-10-08T01:07:00;10.80;;;7.70;;
56037;SDS011;41907;47.848;9.000;2023-10-08T01:09:35;12.63;;;8.50;;
56037;SDS011;41907;47.848;9.000;2023-10-08T01:12:17;16.10;;;8.05;;
56037;SDS011;41907;47.848;9.000;2023-10-08T01:14:53;14.50;;;7.80;;
56037;SDS011;41907;47.848;9.000;2023-10-08T01:17:19;13.10;;;8.35;;
56037;SDS011;41907;47.848;9.000;2023-10-08T01:19:49;13.52;;;8.82;;
56037;SDS011;41907;47.848;9.000;2023-10-08T01:22:33;11.60;;;8.27;;
56037;SDS011;41907;47.848;9.000;2023-10-08T01:24:59;12.27;;;7.93;;
56037;SDS011;41907;47.848;9.000;2023-10-08T01:27:29;11.88;;;8.05;;
56037;SDS011;41907;47.848;9.000;2023-10-08T01:29:59;12.38;;;8.75;;
56037;SDS011;41907;47.848;9.000;2023-10-08T01:32:36;16.50;;;8.75;;
56037;SDS011;41907;47.848;9.000;2023-10-08T01:35:02;12.40;;;9.40;;
56037;SDS011;41907;47.848;9.000;2023-10-08T01:37:30;12.95;;;7.32;;
56037;SDS011;41907;47.848;9.000;2023-10-08T01:39:59;12.30;;;8.68;;
56037;SDS011;41907;47.848;9.000;2023-10-08T01:42:26;12.65;;;8.23;;
56037;SDS011;41907;47.848;9.000;2023-10-08T01:44:53;13.02;;;8.45;;
56037;SDS011;41907;47.848;9.000;2023-10-08T01:47:20;13.27;;;8.00;;
56037;SDS011;41907;47.848;9.000;2023-10-08T01:49:50;13.02;;;8.60;;
56037;SDS011;41907;47.848;9.000;2023-10-08T01:52:18;21.55;;;9.30;;
56037;SDS011;41907;47.848;9.000;2023-10-08T01:54:47;12.95;;;8.35;;
56037;SDS011;41907;47.848;9.000;2023-10-08T01:57:13;14.20;;;8.95;;
56037;SDS011;41907;47.848;9.000;2023-10-08T01:59:39;13.32;;;7.97;;
56037;SDS011;41907;47.848;9.000;2023-10-08T02:02:05;12.85;;;8.07;;
56037;SDS011;41907;47.848;9.000;2023-10-08T02:04:34;11.93;;;7.75;;
56037;SDS011;41907;47.848;9.000;2023-10-08T02:07:00;11.80;;;7.47;;
56037;SDS011;41907;47.848;9.000;2023-10-08T02:09:26;14.02;;;8.25;;
56037;SDS011;41907;47.848;9.000;2023-10-08T02:11:52;11.93;;;7.78;;
56037;SDS011;41907;47.848;9.000;2023-10-08T02:14:20;12.55;;;7.50;;
56037;SDS011;41907;47.848;9.000;2023-10-08T02:16:47;10.40;;;6.95;;
56037;SDS011;41907;47.848;9.000;2023-10-08T02:19:13;12.05;;;7.00;;
56037;SDS011;41907;47.848;9.000;2023-10-08T02:21:43;10.60;;;6.85;;
56037;SDS011;41907;47.848;9.000;2023-10-08T02:24:11;10.23;;;7.00;;
56037;SDS011;41907;47.848;9.000;2023-10-08T02:26:37;9.75;;;6.43;;
56037;SDS011;41907;47.848;9.000;2023-10-08T02:29:03;9.95;;;5.97;;
56037;SDS011;41907;47.848;9.000;2023-10-08T02:31:36;9.30;;;6.45;;
56037;SDS011;41907;47.848;9.000;2023-10-08T02:34:05;9.18;;;6.07;;
56037;SDS011;41907;47.848;9.000;2023-10-08T02:36:38;9.70;;;6.45;;
56037;SDS011;41907;47.848;9.000;2023-10-08T02:39:05;10.27;;;5.60;;
56037;SDS011;41907;47.848;9.000;2023-10-08T02:41:38;12.45;;;5.68;;
56037;SDS011;41907;47.848;9.000;2023-10-08T02:44:06;9.55;;;5.95;;
56037;SDS011;41907;47.848;9.000;2023-10-08T02:46:34;8.15;;;6.10;;
56037;SDS011;41907;47.848;9.000;2023-10-08T02:49:02;10.00;;;5.50;;
56037;SDS011;41907;47.848;9.000;2023-10-08T02:51:28;9.43;;;6.00;;
56037;SDS011;41907;47.848;9.000;2023-10-08T02:53:54;10.32;;;5.78;;
56037;SDS011;41907;47.848;9.000;2023-10-08T02:56:19;9.80;;;6.07;;
56037;SDS011;41907;47.848;9.000;2023-10-08T02:58:46;11.50;;;6.97;;
56037;SDS011;41907;47.848;9.000;2023-10-08T03:01:12;12.60;;;7.25;;
56037;SDS011;41907;47.848;9.000;2023-10-08T03:03:39;10.48;;;6.75;;
56037;SDS011;41907;47.848;9.000;2023-10-08T03:06:05;12.73;;;7.40;;
56037;SDS011;41907;47.848;9.000;2023-10-08T03:08:36;15.27;;;8.38;;
56037;SDS011;41907;47.848;9.000;2023-10-08T03:11:05;12.88;;;7.38;;
56037;SDS011;41907;47.848;9.000;2023-10-08T03:13:31;13.63;;;7.72;;
56037;SDS011;41907;47.848;9.000;2023-10-08T03:15:57;13.52;;;7.80;;
56037;SDS011;41907;47.848;9.000;2023-10-08T03:18:28;11.52;;;7.88;;
56037;SDS011;41907;47.848;9.000;2023-10-08T03:21:08;12.18;;;7.60;;
56037;SDS011;41907;47.848;9.000;2023-10-08T03:23:46;10.45;;;7.05;;
56037;SDS011;41907;47.848;9.000;2023-10-08T03:26:13;11.02;;;6.95;;
56037;SDS011;41907;47.848;9.000;2023-10-08T03:28:57;10.50;;;6.95;;
56037;SDS011;41907;47.848;9.000;2023-10-08T03:31:23;10.75;;;6.45;;
56037;SDS011;41907;47.848;9.000;2023-10-08T03:34:10;14.63;;;6.65;;
56037;SDS011;41907;47.848;9.000;2023-10-08T03:36:40;10.40;;;7.00;;
56037;SDS011;41907;47.848;9.000;2023-10-08T03:39:12;14.30;;;7.10;;
56037;SDS011;41907;47.848;9.000;2023-10-08T03:41:39;10.10;;;6.60;;
56037;SDS011;41907;47.848;9.000;2023-10-08T03:44:06;11.75;;;7.20;;
56037;SDS011;41907;47.848;9.000;2023-10-08T03:46:38;11.35;;;7.25;;
56037;SDS011;41907;47.848;9.000;2023-10-08T03:49:07;11.05;;;7.13;;
56037;SDS011;41907;47.848;9.000;2023-10-08T03:51:48;9.57;;;6.78;;
56037;SDS011;41907;47.848;9.000;2023-10-08T03:54:17;11.95;;;7.75;;
56037;SDS011;41907;47.848;9.000;2023-10-08T03:56:54;11.68;;;6.78;;
56037;SDS011;41907;47.848;9.000;2023-10-08T03:59:20;11.77;;;6.90;;
56037;SDS011;41907;47.848;9.000;2023-10-08T04:01:56;10.10;;;7.00;;
56037;SDS011;41907;47.848;9.000;2023-10-08T04:04:35;10.40;;;6.75;;
56037;SDS011;41907;47.848;9.000;2023-10-08T04:07:20;10.13;;;6.18;;
56037;SDS011;41907;47.848;9.000;2023-10-08T04:09:58;8.48;;;6.22;;
56037;SDS011;41907;47.848;9.000;2023-10-08T04:12:30;9.43;;;6.50;;
56037;SDS011;41907;47.848;9.000;2023-10-08T04:14:59;10.93;;;6.60;;
56037;SDS011;41907;47.848;9.000;2023-10-08T04:17:32;9.65;;;6.15;;
56037;SDS011;41907;47.848;9.000;2023-10-08T04:20:08;12.82;;;7.28;;
56037;SDS011;41907;47.848;9.000;2023-10-08T04:22:53;11.23;;;7.05;;
56037;SDS011;41907;47.848;9.000;2023-10-08T04:25:19;10.05;;;6.40;;
56037;SDS011;41907;47.848;9.000;2023-10-08T04:27:45;9.43;;;6.88;;
56037;SDS011;41907;47.848;9.000;2023-10-08T04:30:14;10.50;;;7.03;;
56037;SDS011;41907;47.848;9.000;2023-10-08T04:32:40;11.85;;;7.47;;
56037;SDS011;41907;47.848;9.000;2023-10-08T04:35:06;14.10;;;7.20;;
56037;SDS011;41907;47.848;9.000;2023-10-08T04:37:33;13.00;;;8.15;;
56037;SDS011;41907;47.848;9.000;2023-10-08T04:39:59;13.23;;;8.50;;
56037;SDS011;41907;47.848;9.000;2023-10-08T04:42:24;12.68;;;7.95;;
56037;SDS011;41907;47.848;9.000;2023-10-08T04:44:53;12.07;;;8.38;;
56037;SDS011;41907;47.848;9.000;2023-10-08T04:47:19;13.32;;;7.57;;
56037;SDS011;41907;47.848;9.000;2023-10-08T04:49:57;12.10;;;8.18;;
56037;SDS011;41907;47.848;9.000;2023-10-08T04:52:22;10.68;;;7.35;;
56037;SDS011;41907;47.848;9.000;2023-10-08T04:54:50;14.65;;;8.40;;
56037;SDS011;41907;47.848;9.000;2023-10-08T04:57:22;10.77;;;6.95;;
56037;SDS011;41907;47.848;9.000;2023-10-08T04:59:48;10.38;;;6.97;;
56037;SDS011;41907;47.848;9.000;2023-10-08T05:02:15;10.05;;;6.90;;
56037;SDS011;41907;47.848;9.000;2023-10-08T05:04:43;11.18;;;5.78;;
56037;SDS011;41907;47.848;9.000;2023-10-08T05:07:25;8.38;;;5.75;;
56037;SDS011;41907;47.848;9.000;2023-10-08T05:10:19;9.48;;;5.60;;
56037;SDS011;41907;47.848;9.000;2023-10-08T05:12:51;9.32;;;5.55;;
56037;SDS011;41907;47.848;9.000;2023-10-08T05:15:42;8.85;;;5.75;;
56037;SDS011;41907;47.848;9.000;2023-10-08T05:18:27;9.70;;;5.72;;
56037;SDS011;41907;47.848;9.000;2023-10-08T05:21:13;9.05;;;5.70;;
56037;SDS011;41907;47.848;9.000;2023-10-08T05:24:05;11.60;;;6.38;;
56037;SDS011;41907;47.848;9.000;2023-10-08T05:26:40;11.63;;;7.30;;
56037;SDS011;41907;47.848;9.000;2023-10-08T05:29:14;14.57;;;8.68;;
56037;SDS011;41907;47.848;9.000;2023-10-08T05:32:14;14.27;;;8.80;;
56037;SDS011;41907;47.848;9.000;2023-10-08T05:35:03;34.75;;;19.77;;
56037;SDS011;41907;47.848;9.000;2023-10-08T05:37:47;29.67;;;17.92;;
56037;SDS011;41907;47.848;9.000;2023-10-08T05:40:17;30.55;;;17.08;;
56037;SDS011;41907;47.848;9.000;2023-10-08T05:43:08;24.92;;;15.05;;
56037;SDS011;41907;47.848;9.000;2023-10-08T05:45:48;23.77;;;14.63;;
56037;SDS011;41907;47.848;9.000;2023-10-08T05:48:33;25.98;;;14.40;;
56037;SDS011;41907;47.848;9.000;2023-10-08T05:51:10;24.65;;;13.82;;
56037;SDS011;41907;47.848;9.000;2023-10-08T05:53:48;19.60;;;11.75;;
56037;SDS011;41907;47.848;9.000;2023-10-08T05:56:14;20.25;;;11.63;;
56037;SDS011;41907;47.848;9.000;2023-10-08T05:58:53;18.55;;;10.82;;
56037;SDS011;41907;47.848;9.000;2023-10-08T06:01:39;16.58;;;10.27;;
56037;SDS011;41907;47.848;9.000;2023-10-08T06:04:06;15.02;;;10.02;;
56037;SDS011;41907;47.848;9.000;2023-10-08T06:07:06;15.05;;;9.48;;
56037;SDS011;41907;47.848;9.000;2023-10-08T06:09:42;15.50;;;9.00;;
56037;SDS011;41907;47.848;9.000;2023-10-08T06:12:15;12.40;;;8.30;;
56037;SDS011;41907;47.848;9.000;2023-10-08T06:14:55;12.90;;;7.38;;
56037;SDS011;41907;47.848;9.000;2023-10-08T06:17:32;13.65;;;8.23;;
56037;SDS011;41907;47.848;9.000;2023-10-08T06:20:17;15.00;;;9.48;;
56037;SDS011;41907;47.848;9.000;2023-10-08T06:22:42;17.90;;;9.00;;
56037;SDS011;41907;47.848;9.000;2023-10-08T06:25:08;14.25;;;9.02;;
56037;SDS011;41907;47.848;9.000;2023-10-08T06:27:48;12.85;;;8.55;;
56037;SDS011;41907;47.848;9.000;2023-10-08T06:30:15;17.02;;;10.60;;
56037;SDS011;41907;47.848;9.000;2023-10-08T06:32:44;23.80;;;13.65;;
56037;SDS011;41907;47.848;9.000;2023-10-08T06:35:10;27.75;;;15.73;;
56037;SDS011;41907;47.848;9.000;2023-10-08T06:37:46;24.50;;;15.75;;
56037;SDS011;41907;47.848;9.000;2023-10-08T06:40:14;26.13;;;14.98;;
56037;SDS011;41907;47.848;9.000;2023-10-08T06:42:59;20.17;;;12.88;;
56037;SDS011;41907;47.848;9.000;2023-10-08T06:45:28;19.17;;;10.82;;
56037;SDS011;41907;47.848;9.000;2023-10-08T06:47:57;17.98;;;10.73;;
56037;SDS011;41907;47.848;9.000;2023-10-08T06:50:23;15.00;;;8.50;;
56037;SDS011;41907;47.848;9.000;2023-10-08T06:52:48;11.18;;;7.70;;
56037;SDS011;41907;47.848;9.000;2023-10-08T06:55:14;10.73;;;6.90;;
56037;SDS011;41907;47.848;9.000;2023-10-08T06:57:42;8.68;;;6.57;;
56037;SDS011;41907;47.848;9.000;2023-10-08T07:00:08;11.50;;;6.20;;
56037;SDS011;41907;47.848;9.000;2023-10-08T07:02:37;7.55;;;5.72;;
56037;SDS011;41907;47.848;9.000;2023-10-08T07:05:04;9.05;;;5.80;;
56037;SDS011;41907;47.848;9.000;2023-10-08T07:07:34;7.93;;;5.60;;
56037;SDS011;41907;47.848;9.000;2023-10-08T07:10:04;10.27;;;6.28;;
56037;SDS011;41907;47.848;9.000;2023-10-08T07:12:35;8.77;;;6.13;;
56037;SDS011;41907;47.848;9.000;2023-10-08T07:15:01;8.18;;;5.43;;
56037;SDS011;41907;47.848;9.000;2023-10-08T07:17:27;9.27;;;5.57;;
56037;SDS011;41907;47.848;9.000;2023-10-08T07:20:05;9.60;;;6.82;;
56037;SDS011;41907;47.848;9.000;2023-10-08T07:22:38;7.10;;;5.13;;
56037;SDS011;41907;47.848;9.000;2023-10-08T07:25:05;8.32;;;6.03;;
56037;SDS011;41907;47.848;9.000;2023-10-08T07:27:33;8.82;;;5.15;;
56037;SDS011;41907;47.848;9.000;2023-10-08T07:30:03;9.80;;;5.85;;
56037;SDS011;41907;47.848;9.000;2023-10-08T07:32:54;11.55;;;5.53;;
56037;SDS011;41907;47.848;9.000;2023-10-08T07:35:20;7.13;;;4.93;;
56037;SDS011;41907;47.848;9.000;2023-10-08T07:37:45;6.95;;;5.38;;
56037;SDS011;41907;47.848;9.000;2023-10-08T07:40:12;8.27;;;5.05;;
56037;SDS011;41907;47.848;9.000;2023-10-08T07:42:40;9.55;;;5.47;;
56037;SDS011;41907;47.848;9.000;2023-10-08T07:45:06;8.20;;;5.65;;
56037;SDS011;41907;47.848;9.000;2023-10-08T07:47:32;7.65;;;4.90;;
56037;SDS011;41907;47.848;9.000;2023-10-08T07:49:57;9.38;;;5.75;;
56037;SDS011;41907;47.848;9.000;2023-10-08T07:52:23;7.45;;;5.43;;
56037;SDS011;41907;47.848;9.000;2023-10-08T07:54:49;8.43;;;5.78;;
56037;SDS011;41907;47.848;9.000;2023-10-08T07:57:15;7.97;;;5.07;;
56037;SDS011;41907;47.848;9.000;2023-10-08T07:59:51;8.73;;;5.05;;
56037;SDS011;41907;47.848;9.000;2023-10-08T08:02:20;6.35;;;5.20;;
56037;SDS011;41907;47.848;9.000;2023-10-08T08:04:51;6.57;;;4.97;;
56037;SDS011;41907;47.848;9.000;2023-10-08T08:07:17;5.57;;;4.88;;
56037;SDS011;41907;47.848;9.000;2023-10-08T08:09:50;7.35;;;5.05;;
56037;SDS011;41907;47.848;9.000;2023-10-08T08:12:20;7.68;;;5.38;;
56037;SDS011;41907;47.848;9.000;2023-10-08T08:14:50;7.72;;;5.20;;
56037;SDS011;41907;47.848;9.000;2023-10-08T08:17:19;7.80;;;4.95;;
56037;SDS011;41907;47.848;9.000;2023-10-08T08:19:47;7.20;;;5.15;;
56037;SDS011;41907;47.848;9.000;2023-10-08T08:22:15;7.93;;;5.53;;
56037;SDS011;41907;47.848;9.000;2023-10-08T08:27:18;11.02;;;6.05;;
56037;SDS011;41907;47.848;9.000;2023-10-08T08:29:52;11.90;;;6.67;;
56037;SDS011;41907;47.848;9.000;2023-10-08T08:32:21;14.65;;;7.13;;
56037;SDS011;41907;47.848;9.000;2023-10-08T08:34:48;11.15;;;7.38;;
56037;SDS011;41907;47.848;9.000;2023-10-08T08:37:16;13.00;;;8.63;;
56037;SDS011;41907;47.848;9.000;2023-10-08T08:39:41;16.13;;;11.68;;
56037;SDS011;41907;47.848;9.000;2023-10-08T08:42:07;16.92;;;10.40;;
56037;SDS011;41907;47.848;9.000;2023-10-08T08:44:37;12.75;;;8.13;;
56037;SDS011;41907;47.848;9.000;2023-10-08T08:47:10;10.73;;;7.53;;
56037;SDS011;41907;47.848;9.000;2023-10-08T08:49:42;12.63;;;8.27;;
56037;SDS011;41907;47.848;9.000;2023-10-08T08:52:11;17.80;;;12.18;;
56037;SDS011;41907;47.848;9.000;2023-10-08T08:54:38;10.57;;;7.80;;
56037;SDS011;41907;47.848;9.000;2023-10-08T08:57:04;10.77;;;7.20;;
56037;SDS011;41907;47.848;9.000;2023-10-08T08:59:31;11.90;;;6.78;;
56037;SDS011;41907;47.848;9.000;2023-10-08T09:01:57;8.38;;;5.90;;
56037;SDS011;41907;47.848;9.000;2023-10-08T09:04:30;7.22;;;5.32;;
56037;SDS011;41907;47.848;9.000;2023-10-08T09:06:58;8.98;;;5.30;;
56037;SDS011;41907;47.848;9.000;2023-10-08T09:09:31;8.55;;;5.13;;
56037;SDS011;41907;47.848;9.000;2023-10-08T09:12:00;7.57;;;5.03;;
56037;SDS011;41907;47.848;9.000;2023-10-08T09:14:26;8.55;;;5.28;;
56037;SDS011;41907;47.848;9.000;2023-10-08T09:16:55;6.93;;;5.05;;
56037;SDS011;41907;47.848;9.000;2023-10-08T09:19:21;10.30;;;5.35;;
56037;SDS011;41907;47.848;9.000;2023-10-08T09:21:59;8.77;;;5.25;;
56037;SDS011;41907;47.848;9.000;2023-10-08T09:24:32;8.23;;;5.95;;
56037;SDS011;41907;47.848;9.000;2023-10-08T09:27:07;10.52;;;7.05;;
56037;SDS011;41907;47.848;9.000;2023-10-08T09:29:39;13.52;;;6.63;;
56037;SDS011;41907;47.848;9.000;2023-10-08T09:32:05;20.30;;;12.15;;
56037;SDS011;41907;47.848;9.000;2023-10-08T09:34:33;15.38;;;8.88;;
56037;SDS011;41907;47.848;9.000;2023-10-08T09:39:28;9.18;;;6.43;;
56037;SDS011;41907;47.848;9.000;2023-10-08T09:41:59;6.97;;;5.30;;
56037;SDS011;41907;47.848;9.000;2023-10-08T09:44:27;7.05;;;4.88;;
56037;SDS011;41907;47.848;9.000;2023-10-08T09:47:03;8.60;;;5.10;;
56037;SDS011;41907;47.848;9.000;2023-10-08T09:49:36;16.38;;;12.77;;
56037;SDS011;41907;47.848;9.000;2023-10-08T09:52:06;9.70;;;6.50;;
56037;SDS011;41907;47.848;9.000;2023-10-08T09:57:09;9.13;;;6.45;;
56037;SDS011;41907;47.848;9.000;2023-10-08T09:59:36;8.35;;;5.20;;
56037;SDS011;41907;47.848;9.000;2023-10-08T10:02:03;11.15;;;6.45;;
56037;SDS011;41907;47.848;9.000;2023-10-08T10:04:30;10.35;;;5.53;;
56037;SDS011;41907;47.848;9.000;2023-10-08T10:06:57;10.63;;;5.93;;
56037;SDS011;41907;47.848;9.000;2023-10-08T10:09:25;8.13;;;5.35;;
56037;SDS011;41907;47.848;9.000;2023-10-08T10:11:52;9.85;;;5.78;;
56037;SDS011;41907;47.848;9.000;2023-10-08T10:14:22;8.32;;;5.03;;
56037;SDS011;41907;47.848;9.000;2023-10-08T10:16:49;8.48;;;4.78;;
56037;SDS011;41907;47.848;9.000;2023-10-08T10:19:34;11.10;;;4.53;;
56037;SDS011;41907;47.848;9.000;2023-10-08T10:22:01;9.38;;;4.78;;
56037;SDS011;41907;47.848;9.000;2023-10-08T10:24:32;7.43;;;4.43;;
56037;SDS011;41907;47.848;9.000;2023-10-08T10:27:09;8.65;;;4.90;;
56037;SDS011;41907;47.848;9.000;2023-10-08T10:29:36;7.45;;;4.35;;
56037;SDS011;41907;47.848;9.000;2023-10-08T10:32:01;12.73;;;5.07;;
56037;SDS011;41907;47.848;9.000;2023-10-08T10:34:29;10.90;;;5.50;;
56037;SDS011;41907;47.848;9.000;2023-10-08T10:36:58;11.43;;;5.38;;
56037;SDS011;41907;47.848;9.000;2023-10-08T10:39:27;9.82;;;5.63;;
56037;SDS011;41907;47.848;9.000;2023-10-08T10:41:59;9.55;;;4.70;;
56037;SDS011;41907;47.848;9.000;2023-10-08T10:44:32;8.88;;;4.82;;
56037;SDS011;41907;47.848;9.000;2023-10-08T10:47:01;12.05;;;5.93;;
56037;SDS011;41907;47.848;9.000;2023-10-08T10:49:43;8.95;;;5.15;;
56037;SDS011;41907;47.848;9.000;2023-10-08T10:52:21;10.07;;;5.80;;
56037;SDS011;41907;47.848;9.000;2023-10-08T10:55:06;10.25;;;7.22;;
56037;SDS011;41907;47.848;9.000;2023-10-08T10:57:53;9.93;;;4.60;;
56037;SDS011;41907;47.848;9.000;2023-10-08T11:00:21;10.00;;;5.88;;
56037;SDS011;41907;47.848;9.000;2023-10-08T11:03:00;8.93;;;4.55;;
56037;SDS011;41907;47.848;9.000;2023-10-08T11:05:48;9.30;;;5.80;;
56037;SDS011;41907;47.848;9.000;2023-10-08T11:08:19;6.80;;;4.20;;
56037;SDS011;41907;47.848;9.000;2023-10-08T11:10:48;11.98;;;5.88;;
56037;SDS011;41907;47.848;9.000;2023-10-08T11:13:20;12.20;;;6.80;;
56037;SDS011;41907;47.848;9.000;2023-10-08T11:15:47;17.27;;;9.35;;
56037;SDS011;41907;47.848;9.000;2023-10-08T11:18:17;18.02;;;10.23;;
56037;SDS011;41907;47.848;9.000;2023-10-08T11:20:47;17.67;;;8.57;;
56037;SDS011;41907;47.848;9.000;2023-10-08T11:26:02;16.13;;;8.55;;
56037;SDS011;41907;47.848;9.000;2023-10-08T11:28:32;10.68;;;5.15;;
56037;SDS011;41907;47.848;9.000;2023-10-08T11:31:06;28.23;;;19.08;;
56037;SDS011;41907;47.848;9.000;2023-10-08T11:33:39;11.40;;;7.22;;
56037;SDS011;41907;47.848;9.000;2023-10-08T11:36:06;9.95;;;5.72;;
56037;SDS011;41907;47.848;9.000;2023-10-08T11:38:43;15.95;;;8.27;;
56037;SDS011;41907;47.848;9.000;2023-10-08T11:41:16;12.25;;;7.47;;
56037;SDS011;41907;47.848;9.000;2023-10-08T11:46:18;12.35;;;6.53;;
56037;SDS011;41907;47.848;9.000;2023-10-08T11:49:06;9.27;;;5.57;;
56037;SDS011;41907;47.848;9.000;2023-10-08T11:51:44;8.48;;;4.97;;
56037;SDS011;41907;47.848;9.000;2023-10-08T11:54:13;9.55;;;4.85;;
56037;SDS011;41907;47.848;9.000;2023-10-08T11:56:39;6.68;;;4.03;;
56037;SDS011;41907;47.848;9.000;2023-10-08T11:59:06;7.03;;;3.80;;
56037;SDS011;41907;47.848;9.000;2023-10-08T12:01:37;7.85;;;3.63;;
56037;SDS011;41907;47.848;9.000;2023-10-08T12:04:07;7.80;;;4.38;;
56037;SDS011;41907;47.848;9.000;2023-10-08T12:06:37;8.38;;;4.43;;
56037;SDS011;41907;47.848;9.000;2023-10-08T12:09:03;10.48;;;4.95;;
56037;SDS011;41907;47.848;9.000;2023-10-08T12:11:36;6.88;;;4.60;;
56037;SDS011;41907;47.848;9.000;2023-10-08T12:14:03;8.82;;;4.13;;
56037;SDS011;41907;47.848;9.000;2023-10-08T12:16:28;10.75;;;4.05;;
56037;SDS011;41907;47.848;9.000;2023-10-08T12:19:00;9.43;;;4.15;;
56037;SDS011;41907;47.848;9.000;2023-10-08T12:21:27;14.20;;;4.05;;
56037;SDS011;41907;47.848;9.000;2023-10-08T12:23:59;8.45;;;4.53;;
56037;SDS011;41907;47.848;9.000;2023-10-08T12:28:56;7.68;;;3.50;;
56037;SDS011;41907;47.848;9.000;2023-10-08T12:31:22;10.88;;;3.83;;
56037;SDS011;41907;47.848;9.000;2023-10-08T12:33:49;7.40;;;4.28;;
56037;SDS011;41907;47.848;9.000;2023-10-08T12:36:25;8.95;;;4.35;;
56037;SDS011;41907;47.848;9.000;2023-10-08T12:38:52;9.57;;;3.95;;
56037;SDS011;41907;47.848;9.000;2023-10-08T12:41:24;7.88;;;4.13;;
56037;SDS011;41907;47.848;9.000;2023-10-08T12:43:53;6.93;;;3.80;;
56037;SDS011;41907;47.848;9.000;2023-10-08T12:46:19;8.65;;;4.07;;
56037;SDS011;41907;47.848;9.000;2023-10-08T12:48:52;12.25;;;5.50;;
56037;SDS011;41907;47.848;9.000;2023-10-08T12:51:19;5.85;;;3.60;;
56037;SDS011;41907;47.848;9.000;2023-10-08T12:53:49;10.77;;;3.85;;
56037;SDS011;41907;47.848;9.000;2023-10-08T12:56:24;9.70;;;4.10;;
56037;SDS011;41907;47.848;9.000;2023-10-08T12:58:57;6.82;;;3.60;;
56037;SDS011;41907;47.848;9.000;2023-10-08T13:01:23;7.57;;;4.40;;
56037;SDS011;41907;47.848;9.000;2023-10-08T13:03:48;10.98;;;3.72;;
56037;SDS011;41907;47.848;9.000;2023-10-08T13:06:14;9.67;;;4.10;;
56037;SDS011;41907;47.848;9.000;2023-10-08T13:08:50;8.00;;;4.03;;
56037;SDS011;41907;47.848;9.000;2023-10-08T13:11:18;11.63;;;4.32;;
56037;SDS011;41907;47.848;9.000;2023-10-08T13:13:47;9.27;;;3.97;;
56037;SDS011;41907;47.848;9.000;2023-10-08T13:16:16;10.68;;;4.20;;
56037;SDS011;41907;47.848;9.000;2023-10-08T13:18:42;9.10;;;4.00;;
56037;SDS011;41907;47.848;9.000;2023-10-08T13:21:08;13.18;;;4.57;;
56037;SDS011;41907;47.848;9.000;2023-10-08T13:23:34;12.90;;;4.13;;
56037;SDS011;41907;47.848;9.000;2023-10-08T13:26:00;8.07;;;4.00;;
56037;SDS011;41907;47.848;9.000;2023-10-08T13:28:29;9.40;;;3.92;;
56037;SDS011;41907;47.848;9.000;2023-10-08T13:30:58;13.55;;;3.65;;
56037;SDS011;41907;47.848;9.000;2023-10-08T13:33:35;13.55;;;4.93;;
56037;SDS011;41907;47.848;9.000;2023-10-08T13:36:04;6.28;;;3.25;;
56037;SDS011;41907;47.848;9.000;2023-10-08T13:38:33;9.73;;;3.78;;
56037;SDS011;41907;47.848;9.000;2023-10-08T13:41:00;15.00;;;9.20;;
56037;SDS011;41907;47.848;9.000;2023-10-08T13:43:29;17.00;;;10.00;;
56037;SDS011;41907;47.848;9.000;2023-10-08T13:46:02;12.48;;;6.25;;
56037;SDS011;41907;47.848;9.000;2023-10-08T13:48:34;8.27;;;3.83;;
56037;SDS011;41907;47.848;9.000;2023-10-08T13:51:00;10.63;;;4.07;;
56037;SDS011;41907;47.848;9.000;2023-10-08T13:53:28;10.90;;;3.78;;
56037;SDS011;41907;47.848;9.000;2023-10-08T13:55:58;13.52;;;3.67;;
56037;SDS011;41907;47.848;9.000;2023-10-08T13:58:26;12.68;;;3.83;;
56037;SDS011;41907;47.848;9.000;2023-10-08T14:00:53;10.38;;;4.35;;
56037;SDS011;41907;47.848;9.000;2023-10-08T14:03:19;12.45;;;4.70;;
56037;SDS011;41907;47.848;9.000;2023-10-08T14:05:47;9.25;;;4.00;;
56037;SDS011;41907;47.848;9.000;2023-10-08T14:08:19;9.50;;;3.72;;
56037;SDS011;41907;47.848;9.000;2023-10-08T14:10:45;15.18;;;4.18;;
56037;SDS011;41907;47.848;9.000;2023-10-08T14:13:13;8.70;;;3.58;;
56037;SDS011;41907;47.848;9.000;2023-10-08T14:15:44;11.77;;;4.05;;
56037;SDS011;41907;47.848;9.000;2023-10-08T14:18:13;9.13;;;3.72;;
56037;SDS011;41907;47.848;9.000;2023-10-08T14:20:42;8.55;;;3.55;;
56037;SDS011;41907;47.848;9.000;2023-10-08T14:23:12;9.52;;;4.40;;
56037;SDS011;41907;47.848;9.000;2023-10-08T14:25:39;7.88;;;3.80;;
56037;SDS011;41907;47.848;9.000;2023-10-08T14:28:09;12.90;;;3.80;;
56037;SDS011;41907;47.848;9.000;2023-10-08T14:30:46;11.57;;;4.15;;
56037;SDS011;41907;47.848;9.000;2023-10-08T14:33:12;16.38;;;6.30;;
56037;SDS011;41907;47.848;9.000;2023-10-08T14:35:48;15.88;;;5.32;;
56037;SDS011;41907;47.848;9.000;2023-10-08T14:38:32;15.02;;;4.93;;
56037;SDS011;41907;47.848;9.000;2023-10-08T14:41:16;18.92;;;5.45;;
56037;SDS011;41907;47.848;9.000;2023-10-08T14:44:00;14.25;;;5.60;;
56037;SDS011;41907;47.848;9.000;2023-10-08T14:46:29;14.90;;;6.05;;
56037;SDS011;41907;47.848;9.000;2023-10-08T14:48:57;10.13;;;5.03;;
56037;SDS011;41907;47.848;9.000;2023-10-08T14:51:23;12.52;;;5.32;;
56037;SDS011;41907;47.848;9.000;2023-10-08T14:53:49;15.35;;;5.32;;
56037;SDS011;41907;47.848;9.000;2023-10-08T14:56:14;14.63;;;4.93;;
56037;SDS011;41907;47.848;9.000;2023-10-08T14:58:41;11.75;;;4.05;;
56037;SDS011;41907;47.848;9.000;2023-10-08T15:01:06;14.27;;;4.88;;
56037;SDS011;41907;47.848;9.000;2023-10-08T15:03:32;14.23;;;4.40;;
56037;SDS011;41907;47.848;9.000;2023-10-08T15:05:57;10.95;;;5.43;;
56037;SDS011;41907;47.848;9.000;2023-10-08T15:08:23;12.57;;;5.25;;
56037;SDS011;41907;47.848;9.000;2023-10-08T15:10:49;8.60;;;4.88;;
56037;SDS011;41907;47.848;9.000;2023-10-08T15:13:14;12.23;;;4.35;;
56037;SDS011;41907;47.848;9.000;2023-10-08T15:15:40;12.05;;;4.00;;
56037;SDS011;41907;47.848;9.000;2023-10-08T15:18:07;8.48;;;4.07;;